createdAt,value
2018-09-05T00:00:26.556Z,97.04
2018-09-05T00:01:26.545Z,96.85
2018-09-05T00:02:26.528Z,96.27
2018-09-05T00:03:26.512Z,96.08
2018-09-05T00:04:26.507Z,96.27
2018-09-05T00:05:26.482Z,96.27
2018-09-05T00:06:26.463Z,95.98
2018-09-05T00:07:26.449Z,96.27
2018-09-05T00:08:26.434Z,96.17
2018-09-05T00:09:26.419Z,96.17
2018-09-05T00:10:26.406Z,96.08
2018-09-05T00:11:26.388Z,96.17
2018-09-05T00:12:26.373Z,96.27
2018-09-05T00:13:26.359Z,96.37
2018-09-05T00:14:26.349Z,95.98
2018-09-05T00:15:26.327Z,96.08
2018-09-05T00:16:26.329Z,95.89
2018-09-05T00:17:26.301Z,95.89
2018-09-05T00:18:26.280Z,96.27
2018-09-05T00:19:26.267Z,96.08
2018-09-05T00:20:26.251Z,97.14
2018-09-05T00:21:26.238Z,96.17
2018-09-05T00:22:26.227Z,96.08
2018-09-05T00:23:26.206Z,96.08
2018-09-05T00:24:26.190Z,96.27
2018-09-05T00:25:26.176Z,96.17
2018-09-05T00:26:26.159Z,96.03
2018-09-05T00:27:26.150Z,96.13
2018-09-05T00:28:26.131Z,95.84
2018-09-05T00:29:26.115Z,96.03
2018-09-05T00:30:26.147Z,95.94
2018-09-05T00:31:26.084Z,96.13
2018-09-05T00:32:26.070Z,96.17
2018-09-05T00:33:26.063Z,96.22
2018-09-05T00:34:26.038Z,95.84
2018-09-05T00:35:26.023Z,95.75
2018-09-05T00:36:26.009Z,95.94
2018-09-05T00:37:25.994Z,96.22
2018-09-05T00:38:25.977Z,95.94
2018-09-05T00:39:25.963Z,96.22
2018-09-05T00:40:25.945Z,96.22
2018-09-05T00:41:25.953Z,96.32
2018-09-05T00:42:25.916Z,96.03
2018-09-05T00:43:25.901Z,96.32
2018-09-05T00:44:25.916Z,96.13
2018-09-05T00:45:25.870Z,96.03
2018-09-05T00:46:25.877Z,96.03
2018-09-05T00:47:25.841Z,96.03
2018-09-05T00:48:25.825Z,96.32
2018-09-05T00:49:25.813Z,95.94
2018-09-05T00:50:25.796Z,96.61
2018-09-05T00:51:25.778Z,96.80
2018-09-05T00:52:25.763Z,96.99
2018-09-05T00:53:25.748Z,96.99
2018-09-05T00:54:25.732Z,96.99
2018-09-05T00:55:25.718Z,96.51
2018-09-05T00:56:25.700Z,96.90
2018-09-05T00:57:25.687Z,96.99
2018-09-05T00:58:25.676Z,97.09
2018-09-05T00:59:25.655Z,97.19
2018-09-05T01:00:25.642Z,96.99
2018-09-05T01:01:25.626Z,97.09
2018-09-05T01:02:25.609Z,97.67
2018-09-05T01:03:25.597Z,98.05
2018-09-05T01:04:25.582Z,97.28
2018-09-05T01:05:25.564Z,96.99
2018-09-05T01:06:25.548Z,96.99
2018-09-05T01:07:25.533Z,97.28
2018-09-05T01:08:25.517Z,97.09
2018-09-05T01:09:25.501Z,97.09
2018-09-05T01:10:25.489Z,97.28
2018-09-05T01:11:25.470Z,97.19
2018-09-05T01:12:25.463Z,96.99
2018-09-05T01:13:25.442Z,97.09
2018-09-05T01:14:25.426Z,97.09
2018-09-05T01:15:25.410Z,96.70
2018-09-05T01:16:25.394Z,96.90
2018-09-05T01:17:25.384Z,96.90
2018-09-05T01:18:25.366Z,96.90
2018-09-05T01:19:25.347Z,97.28
2018-09-05T01:20:25.332Z,97.38
2018-09-05T01:21:25.318Z,96.99
2018-09-05T01:22:25.302Z,97.19
2018-09-05T01:23:25.293Z,96.99
2018-09-05T01:24:25.363Z,97.09
2018-09-05T01:25:25.255Z,97.09
2018-09-05T01:26:25.238Z,96.80
2018-09-05T01:27:25.224Z,96.80
2018-09-05T01:28:25.208Z,96.94
2018-09-05T01:29:25.194Z,97.28
2018-09-05T01:30:25.177Z,97.19
2018-09-05T01:31:25.162Z,97.76
2018-09-05T01:32:25.148Z,97.09
2018-09-05T01:33:25.131Z,96.99
2018-09-05T01:34:25.116Z,97.67
2018-09-05T01:35:25.099Z,97.76
2018-09-05T01:36:25.087Z,97.38
2018-09-05T01:37:25.075Z,96.75
2018-09-05T01:38:25.064Z,97.67
2018-09-05T01:39:25.054Z,97.33
2018-09-05T01:40:25.024Z,97.38
2018-09-05T01:41:25.008Z,97.52
2018-09-05T01:42:24.993Z,97.91
2018-09-05T01:43:24.976Z,97.71
2018-09-05T01:44:24.962Z,97.71
2018-09-05T01:45:24.945Z,97.33
2018-09-05T01:46:24.930Z,97.42
2018-09-05T01:47:24.914Z,97.52
2018-09-05T01:48:24.901Z,97.42
2018-09-05T01:49:24.885Z,97.52
2018-09-05T01:50:24.867Z,97.52
2018-09-05T01:51:24.853Z,97.42
2018-09-05T01:52:24.840Z,97.42
2018-09-05T01:53:24.822Z,98.10
2018-09-05T01:54:24.805Z,98.00
2018-09-05T01:55:24.790Z,97.71
2018-09-05T01:56:24.776Z,98.48
2018-09-05T01:57:24.765Z,98.48
2018-09-05T01:58:24.743Z,98.48
2018-09-05T01:59:24.732Z,98.19
2018-09-05T02:00:24.716Z,98.19
2018-09-05T02:01:24.699Z,98.39
2018-09-05T02:02:24.686Z,98.58
2018-09-05T02:03:24.666Z,98.29
2018-09-05T02:04:24.652Z,98.48
2018-09-05T02:05:24.639Z,98.29
2018-09-05T02:06:24.622Z,98.00
2018-09-05T02:07:24.604Z,98.10
2018-09-05T02:08:24.635Z,98.29
2018-09-05T02:09:24.589Z,98.29
2018-09-05T02:10:24.558Z,98.48
2018-09-05T02:11:24.541Z,98.10
2018-09-05T02:12:24.527Z,98.48
2018-09-05T02:13:24.511Z,98.29
2018-09-05T02:14:24.500Z,98.39
2018-09-05T02:15:24.481Z,98.10
2018-09-05T02:16:24.464Z,98.48
2018-09-05T02:17:24.451Z,98.58
2018-09-05T02:18:24.433Z,98.48
2018-09-05T02:19:24.416Z,98.19
2018-09-05T02:20:24.401Z,98.19
2018-09-05T02:21:24.391Z,98.68
2018-09-05T02:22:24.370Z,98.58
2018-09-05T02:23:24.355Z,98.10
2018-09-05T02:24:24.339Z,98.00
2018-09-05T02:25:24.325Z,98.29
2018-09-05T02:26:24.306Z,98.48
2018-09-05T02:27:24.293Z,98.10
2018-09-05T02:28:24.276Z,98.29
2018-09-05T02:29:24.267Z,98.39
2018-09-05T02:30:24.243Z,98.29
2018-09-05T02:31:24.229Z,98.48
2018-09-05T02:32:24.214Z,98.29
2018-09-05T02:33:24.197Z,98.29
2018-09-05T02:34:24.186Z,98.19
2018-09-05T02:35:24.167Z,98.48
2018-09-05T02:36:24.151Z,98.43
2018-09-05T02:37:24.135Z,98.14
2018-09-05T02:38:24.118Z,98.39
2018-09-05T02:39:24.104Z,98.24
2018-09-05T02:40:24.205Z,98.14
2018-09-05T02:41:24.074Z,98.24
2018-09-05T02:42:24.058Z,98.43
2018-09-05T02:43:24.046Z,98.24
2018-09-05T02:44:24.026Z,98.34
2018-09-05T02:45:24.014Z,98.05
2018-09-05T02:46:23.996Z,98.05
2018-09-05T02:47:23.978Z,98.24
2018-09-05T02:48:23.963Z,98.24
2018-09-05T02:49:23.948Z,98.14
2018-09-05T02:50:23.935Z,98.05
2018-09-05T02:51:23.918Z,98.05
2018-09-05T02:52:23.901Z,98.53
2018-09-05T02:53:23.884Z,98.53
2018-09-05T02:54:23.869Z,98.43
2018-09-05T02:55:23.855Z,98.34
2018-09-05T02:56:23.838Z,97.86
2018-09-05T02:57:23.822Z,98.43
2018-09-05T02:58:23.806Z,98.43
2018-09-05T02:59:23.789Z,98.14
2018-09-05T03:00:23.774Z,98.43
2018-09-05T03:01:23.758Z,98.43
2018-09-05T03:02:23.745Z,98.24
2018-09-05T03:03:23.731Z,98.43
2018-09-05T03:04:23.711Z,98.24
2018-09-05T03:05:23.696Z,97.96
2018-09-05T03:06:23.682Z,98.14
2018-09-05T03:07:23.665Z,98.05
2018-09-05T03:08:23.648Z,98.24
2018-09-05T03:09:23.680Z,98.34
2018-09-05T03:10:23.617Z,98.43
2018-09-05T03:11:23.600Z,98.53
2018-09-05T03:12:23.585Z,98.43
2018-09-05T03:13:23.569Z,98.58
2018-09-05T03:14:23.555Z,98.34
2018-09-05T03:15:23.543Z,98.43
2018-09-05T03:16:23.521Z,98.43
2018-09-05T03:17:23.505Z,98.43
2018-09-05T03:18:23.493Z,98.53
2018-09-05T03:19:23.473Z,98.53
2018-09-05T03:20:23.459Z,98.82
2018-09-05T03:21:23.447Z,98.53
2018-09-05T03:22:23.426Z,98.72
2018-09-05T03:23:23.418Z,98.43
2018-09-05T03:24:23.412Z,98.43
2018-09-05T03:25:23.379Z,98.43
2018-09-05T03:26:23.364Z,98.43
2018-09-05T03:27:23.348Z,98.29
2018-09-05T03:28:23.332Z,98.34
2018-09-05T03:29:23.316Z,98.43
2018-09-05T03:30:23.300Z,98.24
2018-09-05T03:31:23.283Z,98.14
2018-09-05T03:32:23.431Z,98.19
2018-09-05T03:33:23.265Z,98.34
2018-09-05T03:34:23.237Z,97.96
2018-09-05T03:35:23.223Z,97.81
2018-09-05T03:36:23.207Z,98.43
2018-09-05T03:37:23.189Z,98.24
2018-09-05T03:38:23.174Z,97.57
2018-09-05T03:39:23.157Z,98.38
2018-09-05T03:40:23.143Z,98.43
2018-09-05T03:41:23.126Z,98.19
2018-09-05T03:42:23.110Z,98.19
2018-09-05T03:43:23.094Z,98.19
2018-09-05T03:44:23.077Z,98.19
2018-09-05T03:45:23.062Z,98.19
2018-09-05T03:46:23.048Z,98.38
2018-09-05T03:47:23.036Z,98.10
2018-09-05T03:48:23.018Z,98.38
2018-09-05T03:49:22.998Z,98.19
2018-09-05T03:50:22.984Z,98.19
2018-09-05T03:51:22.970Z,98.10
2018-09-05T03:52:22.953Z,98.00
2018-09-05T03:53:22.935Z,98.10
2018-09-05T03:54:22.921Z,98.29
2018-09-05T03:55:22.903Z,97.61
2018-09-05T03:56:22.891Z,98.38
2018-09-05T03:57:22.872Z,98.19
2018-09-05T03:58:22.853Z,98.10
2018-09-05T03:59:22.843Z,97.42
2018-09-05T04:00:22.823Z,98.19
2018-09-05T04:01:22.809Z,98.38
2018-09-05T04:02:22.790Z,97.42
2018-09-05T04:03:22.776Z,97.71
2018-09-05T04:04:22.759Z,97.33
2018-09-05T04:05:22.747Z,97.33
2018-09-05T04:06:22.734Z,97.42
2018-09-05T04:07:22.713Z,97.33
2018-09-05T04:08:22.696Z,97.52
2018-09-05T04:09:22.681Z,97.52
2018-09-05T04:10:22.664Z,97.42
2018-09-05T04:11:22.741Z,97.33
2018-09-05T04:12:22.637Z,97.33
2018-09-05T04:13:22.626Z,97.33
2018-09-05T04:14:22.602Z,97.33
2018-09-05T04:15:22.590Z,97.33
2018-09-05T04:16:22.696Z,97.91
2018-09-05T04:17:22.552Z,97.33
2018-09-05T04:18:22.535Z,97.33
2018-09-05T04:19:22.523Z,97.61
2018-09-05T04:20:22.504Z,97.71
2018-09-05T04:21:22.489Z,97.81
2018-09-05T04:22:22.471Z,97.71
2018-09-05T04:23:22.457Z,97.52
2018-09-05T04:24:22.468Z,97.61
2018-09-05T04:25:22.425Z,98.19
2018-09-05T04:26:22.907Z,98.38
2018-09-05T04:27:22.393Z,98.38
2018-09-05T04:28:22.376Z,98.19
2018-09-05T04:29:22.363Z,98.19
2018-09-05T04:30:22.402Z,97.91
2018-09-05T04:31:22.330Z,97.61
2018-09-05T04:32:22.316Z,97.33
2018-09-05T04:33:22.297Z,97.61
2018-09-05T04:34:22.304Z,97.52
2018-09-05T04:35:22.272Z,97.33
2018-09-05T04:36:22.255Z,97.04
2018-09-05T04:37:22.242Z,97.42
2018-09-05T04:38:22.221Z,97.71
2018-09-05T04:39:22.213Z,97.33
2018-09-05T04:40:22.203Z,97.42
2018-09-05T04:41:22.176Z,97.33
2018-09-05T04:42:22.154Z,97.42
2018-09-05T04:43:22.135Z,97.24
2018-09-05T04:44:22.128Z,97.42
2018-09-05T04:45:22.114Z,97.42
2018-09-05T04:46:22.108Z,97.52
2018-09-05T04:47:22.080Z,97.42
2018-09-05T04:48:22.058Z,97.52
2018-09-05T04:49:22.048Z,97.33
2018-09-05T04:50:22.102Z,97.14
2018-09-05T04:51:22.008Z,97.33
2018-09-05T04:52:21.993Z,97.61
2018-09-05T04:53:21.978Z,98.10
2018-09-05T04:54:21.959Z,97.61
2018-09-05T04:55:21.947Z,98.00
2018-09-05T04:56:21.936Z,97.04
2018-09-05T04:57:21.915Z,97.24
2018-09-05T04:58:21.957Z,97.42
2018-09-05T04:59:21.881Z,97.33
2018-09-05T05:00:21.863Z,97.42
2018-09-05T05:01:21.848Z,97.52
2018-09-05T05:02:21.831Z,97.91
2018-09-05T05:03:21.815Z,97.56
2018-09-05T05:04:21.801Z,98.48
2018-09-05T05:05:21.818Z,98.10
2018-09-05T05:06:21.767Z,97.61
2018-09-05T05:07:21.751Z,97.71
2018-09-05T05:08:21.735Z,97.91
2018-09-05T05:09:21.719Z,97.71
2018-09-05T05:10:21.701Z,97.71
2018-09-05T05:11:21.685Z,98.19
2018-09-05T05:12:21.692Z,98.38
2018-09-05T05:13:21.655Z,98.10
2018-09-05T05:14:21.639Z,98.38
2018-09-05T05:15:21.632Z,97.61
2018-09-05T05:16:21.607Z,98.00
2018-09-05T05:17:21.591Z,98.29
2018-09-05T05:18:21.573Z,97.81
2018-09-05T05:19:21.559Z,98.00
2018-09-05T05:20:21.541Z,97.81
2018-09-05T05:21:21.528Z,98.48
2018-09-05T05:22:21.509Z,98.38
2018-09-05T05:23:21.503Z,98.19
2018-09-05T05:24:21.476Z,98.48
2018-09-05T05:25:21.461Z,98.19
2018-09-05T05:26:21.449Z,97.71
2018-09-05T05:27:21.429Z,98.19
2018-09-05T05:28:21.420Z,97.61
2018-09-05T05:29:21.401Z,97.33
2018-09-05T05:30:21.381Z,97.33
2018-09-05T05:31:21.370Z,97.33
2018-09-05T05:32:21.390Z,97.33
2018-09-05T05:33:21.335Z,97.24
2018-09-05T05:34:21.317Z,97.52
2018-09-05T05:35:21.299Z,97.42
2018-09-05T05:36:21.283Z,97.24
2018-09-05T05:37:21.267Z,97.24
2018-09-05T05:38:21.250Z,97.71
2018-09-05T05:39:21.236Z,97.24
2018-09-05T05:40:21.285Z,97.61
2018-09-05T05:41:21.202Z,97.42
2018-09-05T05:42:21.191Z,97.04
2018-09-05T05:43:21.174Z,96.66
2018-09-05T05:44:21.165Z,96.85
2018-09-05T05:45:21.139Z,96.56
2018-09-05T05:46:21.122Z,96.85
2018-09-05T05:47:21.105Z,96.94
2018-09-05T05:48:21.094Z,97.81
2018-09-05T05:49:21.074Z,97.91
2018-09-05T05:50:21.065Z,97.71
2018-09-05T05:51:21.042Z,97.71
2018-09-05T05:52:21.026Z,97.81
2018-09-05T05:53:21.009Z,97.66
2018-09-05T05:54:20.994Z,97.33
2018-09-05T05:55:21.000Z,97.24
2018-09-05T05:56:20.961Z,97.33
2018-09-05T05:57:20.948Z,97.76
2018-09-05T05:58:20.929Z,97.47
2018-09-05T05:59:20.913Z,97.66
2018-09-05T06:00:20.898Z,97.47
2018-09-05T06:01:20.883Z,96.89
2018-09-05T06:02:20.865Z,97.09
2018-09-05T06:03:20.849Z,96.89
2018-09-05T06:04:20.835Z,96.99
2018-09-05T06:05:20.819Z,96.89
2018-09-05T06:06:21.002Z,97.19
2018-09-05T06:07:20.786Z,97.19
2018-09-05T06:08:20.770Z,97.57
2018-09-05T06:09:20.754Z,97.28
2018-09-05T06:10:20.737Z,97.47
2018-09-05T06:11:20.721Z,97.66
2018-09-05T06:12:20.704Z,97.57
2018-09-05T06:13:20.689Z,97.47
2018-09-05T06:14:20.672Z,98.14
2018-09-05T06:15:20.660Z,97.86
2018-09-05T06:16:20.644Z,97.38
2018-09-05T06:17:20.624Z,97.66
2018-09-05T06:18:20.608Z,97.38
2018-09-05T06:19:20.593Z,97.38
2018-09-05T06:20:20.584Z,97.14
2018-09-05T06:21:20.563Z,96.89
2018-09-05T06:22:20.543Z,96.75
2018-09-05T06:23:20.532Z,96.94
2018-09-05T06:24:20.514Z,96.85
2018-09-05T06:25:20.500Z,96.75
2018-09-05T06:26:20.484Z,97.04
2018-09-05T06:27:20.464Z,97.33
2018-09-05T06:28:20.450Z,97.81
2018-09-05T06:29:20.434Z,98.29
2018-09-05T06:30:20.504Z,97.42
2018-09-05T06:31:20.588Z,97.52
2018-09-05T06:32:20.393Z,97.14
2018-09-05T06:33:20.376Z,96.66
2018-09-05T06:34:20.400Z,97.62
2018-09-05T06:35:20.341Z,97.04
2018-09-05T06:36:20.328Z,97.33
2018-09-05T06:37:20.308Z,98.48
2018-09-05T06:38:20.295Z,97.42
2018-09-05T06:39:20.276Z,96.94
2018-09-05T06:40:20.259Z,97.04
2018-09-05T06:41:20.249Z,97.04
2018-09-05T06:42:20.228Z,96.75
2018-09-05T06:43:20.214Z,96.80
2018-09-05T06:44:20.198Z,96.51
2018-09-05T06:45:20.202Z,96.80
2018-09-05T06:46:20.164Z,97.09
2018-09-05T06:47:20.150Z,97.38
2018-09-05T06:48:20.163Z,96.51
2018-09-05T06:49:20.140Z,96.32
2018-09-05T06:50:20.102Z,96.90
2018-09-05T06:51:20.131Z,96.13
2018-09-05T06:52:20.070Z,95.84
2018-09-05T06:53:20.059Z,95.75
2018-09-05T06:54:20.042Z,97.09
2018-09-05T06:55:20.022Z,97.38
2018-09-05T06:56:20.011Z,97.47
2018-09-05T06:57:19.991Z,96.03
2018-09-05T06:58:20.064Z,95.17
2018-09-05T06:59:19.962Z,96.22
2018-09-05T07:00:19.945Z,97.19
2018-09-05T07:01:19.931Z,96.22
2018-09-05T07:02:19.916Z,96.99
2018-09-05T07:03:19.900Z,96.90
2018-09-05T07:04:19.884Z,96.03
2018-09-05T07:05:19.882Z,95.84
2018-09-05T07:06:19.850Z,97.09
2018-09-05T07:07:19.893Z,95.65
2018-09-05T07:08:19.820Z,95.65
2018-09-05T07:09:19.805Z,95.94
2018-09-05T07:10:19.788Z,97.04
2018-09-05T07:11:19.774Z,96.08
2018-09-05T07:12:19.757Z,97.04
2018-09-05T07:13:19.741Z,97.71
2018-09-05T07:14:19.826Z,95.89
2018-09-05T07:15:19.709Z,95.89
2018-09-05T07:16:19.700Z,96.56
2018-09-05T07:17:19.678Z,97.62
2018-09-05T07:18:19.663Z,97.24
2018-09-05T07:19:19.651Z,96.27
2018-09-05T07:20:19.635Z,95.89
2018-09-05T07:21:19.685Z,95.98
2018-09-05T07:22:19.600Z,95.02
2018-09-05T07:23:19.588Z,94.73
2018-09-05T07:24:19.570Z,94.83
2018-09-05T07:25:19.559Z,95.98
2018-09-05T07:26:19.538Z,97.24
2018-09-05T07:27:19.523Z,96.47
2018-09-05T07:28:19.508Z,95.79
2018-09-05T07:29:19.494Z,96.66
2018-09-05T07:30:19.535Z,97.62
2018-09-05T07:31:19.461Z,95.12
2018-09-05T07:32:19.457Z,93.68
2018-09-05T07:33:19.432Z,94.59
2018-09-05T07:34:19.413Z,95.94
2018-09-05T07:35:19.399Z,96.70
2018-09-05T07:36:19.383Z,97.33
2018-09-05T07:37:19.374Z,97.38
2018-09-05T07:38:19.351Z,97.67
2018-09-05T07:39:19.337Z,97.67
2018-09-05T07:40:19.327Z,97.47
2018-09-05T07:41:19.315Z,96.80
2018-09-05T07:42:19.290Z,97.96
2018-09-05T07:43:19.289Z,98.34
2018-09-05T07:44:19.267Z,97.28
2018-09-05T07:45:19.246Z,97.28
2018-09-05T07:46:19.252Z,96.70
2018-09-05T07:47:19.218Z,97.19
2018-09-05T07:48:19.200Z,97.28
2018-09-05T07:49:19.187Z,97.09
2018-09-05T07:50:19.169Z,97.86
2018-09-05T07:51:19.151Z,97.57
2018-09-05T07:52:19.148Z,96.03
2018-09-05T07:53:19.125Z,95.17
2018-09-05T07:54:19.106Z,95.36
2018-09-05T07:55:19.095Z,93.53
2018-09-05T07:56:19.076Z,92.57
2018-09-05T07:57:19.135Z,93.15
2018-09-05T07:58:19.052Z,92.85
2018-09-05T07:59:19.029Z,93.48
2018-09-05T08:00:19.020Z,93.62
2018-09-05T08:01:19.000Z,94.73
2018-09-05T08:02:18.983Z,95.98
2018-09-05T08:03:18.971Z,95.31
2018-09-05T08:04:18.964Z,95.12
2018-09-05T08:05:18.939Z,93.77
2018-09-05T08:06:18.924Z,92.52
2018-09-05T08:07:18.909Z,93.09
2018-09-05T08:08:18.911Z,91.55
2018-09-05T08:09:18.893Z,90.30
2018-09-05T08:10:18.861Z,90.30
2018-09-05T08:11:18.868Z,90.20
2018-09-05T08:12:18.834Z,91.17
2018-09-05T08:13:18.816Z,90.69
2018-09-05T08:14:18.802Z,90.30
2018-09-05T08:15:18.790Z,90.50
2018-09-05T08:16:18.771Z,89.63
2018-09-05T08:17:18.762Z,89.82
2018-09-05T08:18:18.748Z,89.67
2018-09-05T08:19:18.728Z,90.34
2018-09-05T08:20:18.715Z,91.07
2018-09-05T08:21:18.704Z,89.86
2018-09-05T08:22:18.699Z,89.96
2018-09-05T08:23:18.666Z,89.77
2018-09-05T08:24:18.693Z,90.54
2018-09-05T08:25:18.634Z,91.50
2018-09-05T08:26:18.624Z,91.12
2018-09-05T08:27:18.605Z,90.44
2018-09-05T08:28:18.606Z,90.73
2018-09-05T08:29:18.625Z,90.44
2018-09-05T08:30:18.560Z,90.34
2018-09-05T08:31:18.572Z,90.54
2018-09-05T08:32:18.529Z,89.48
2018-09-05T08:33:18.528Z,88.42
2018-09-05T08:34:18.498Z,88.42
2018-09-05T08:35:18.688Z,88.32
2018-09-05T08:36:18.810Z,87.84
2018-09-05T08:37:18.720Z,88.13
2018-09-05T08:38:18.516Z,87.74
2018-09-05T08:39:18.444Z,89.48
2018-09-05T08:40:18.408Z,89.58
2018-09-05T08:41:18.499Z,90.92
2018-09-05T08:42:18.464Z,90.44
2018-09-05T08:43:18.369Z,89.00
2018-09-05T08:44:18.541Z,88.81
2018-09-05T08:45:18.511Z,89.00
2018-09-05T08:46:18.415Z,89.00
2018-09-05T08:47:18.374Z,89.23
2018-09-05T08:48:18.380Z,90.06
2018-09-05T08:49:18.274Z,89.62
2018-09-05T08:50:18.307Z,91.16
2018-09-05T08:51:18.250Z,88.56
2018-09-05T08:52:18.230Z,87.46
2018-09-05T08:53:18.238Z,87.94
2018-09-05T08:54:18.201Z,88.13
2018-09-05T08:55:18.216Z,87.70
2018-09-05T08:56:18.267Z,87.79
2018-09-05T08:57:18.158Z,88.37
2018-09-05T08:58:18.143Z,88.75
2018-09-05T08:59:18.127Z,88.08
2018-09-05T09:00:18.109Z,87.30
2018-09-05T09:01:18.107Z,87.40
2018-09-05T09:02:18.081Z,88.27
2018-09-05T09:03:18.066Z,86.92
2018-09-05T09:04:18.058Z,87.50
2018-09-05T09:05:18.047Z,86.73
2018-09-05T09:06:18.019Z,87.40
2018-09-05T09:07:18.006Z,87.30
2018-09-05T09:08:17.991Z,87.12
2018-09-05T09:09:17.977Z,87.21
2018-09-05T09:10:17.962Z,86.44
2018-09-05T09:11:17.949Z,86.92
2018-09-05T09:12:17.933Z,87.21
2018-09-05T09:13:17.932Z,87.21
2018-09-05T09:14:17.901Z,87.21
2018-09-05T09:15:17.887Z,87.12
2018-09-05T09:16:17.873Z,87.26
2018-09-05T09:17:17.862Z,87.54
2018-09-05T09:18:17.854Z,87.64
2018-09-05T09:19:17.827Z,87.35
2018-09-05T09:20:17.817Z,87.54
2018-09-05T09:21:17.805Z,87.16
2018-09-05T09:22:17.790Z,88.22
2018-09-05T09:23:17.768Z,87.16
2018-09-05T09:24:17.758Z,87.26
2018-09-05T09:25:17.740Z,87.26
2018-09-05T09:26:17.724Z,86.39
2018-09-05T09:27:17.710Z,86.68
2018-09-05T09:28:17.713Z,86.77
2018-09-05T09:29:17.687Z,86.77
2018-09-05T09:30:17.666Z,86.58
2018-09-05T09:31:17.658Z,86.68
2018-09-05T09:32:17.640Z,85.91
2018-09-05T09:33:17.627Z,85.33
2018-09-05T09:34:17.611Z,86.10
2018-09-05T09:35:17.607Z,85.33
2018-09-05T09:36:17.578Z,85.91
2018-09-05T09:37:17.567Z,86.68
2018-09-05T09:38:17.548Z,86.39
2018-09-05T09:39:17.533Z,86.29
2018-09-05T09:40:17.519Z,85.61
2018-09-05T09:41:17.506Z,85.81
2018-09-05T09:42:17.489Z,85.42
2018-09-05T09:43:17.477Z,85.75
2018-09-05T09:44:17.461Z,85.42
2018-09-05T09:45:17.446Z,86.04
2018-09-05T09:46:17.430Z,86.29
2018-09-05T09:47:17.418Z,86.52
2018-09-05T09:48:17.419Z,86.62
2018-09-05T09:49:17.395Z,86.82
2018-09-05T09:50:17.373Z,85.37
2018-09-05T09:51:17.361Z,84.98
2018-09-05T09:52:17.344Z,84.89
2018-09-05T09:53:17.329Z,84.89
2018-09-05T09:54:17.316Z,84.98
2018-09-05T09:55:17.301Z,84.59
2018-09-05T09:56:17.286Z,84.69
2018-09-05T09:57:17.271Z,85.02
2018-09-05T09:58:17.260Z,85.08
2018-09-05T09:59:17.248Z,85.85
2018-09-05T10:00:17.250Z,85.27
2018-09-05T10:01:17.213Z,84.64
2018-09-05T10:02:17.197Z,83.48
2018-09-05T10:03:17.238Z,83.96
2018-09-05T10:04:17.171Z,84.59
2018-09-05T10:05:17.155Z,83.44
2018-09-05T10:06:17.145Z,83.96
2018-09-05T10:07:17.164Z,83.96
2018-09-05T10:08:17.111Z,84.64
2018-09-05T10:09:17.097Z,84.25
2018-09-05T10:10:17.306Z,83.48
2018-09-05T10:11:17.067Z,83.29
2018-09-05T10:12:17.057Z,83.00
2018-09-05T10:13:17.039Z,82.90
2018-09-05T10:14:17.023Z,82.32
2018-09-05T10:15:17.011Z,82.90
2018-09-05T10:16:16.996Z,82.90
2018-09-05T10:17:16.983Z,82.61
2018-09-05T10:18:16.966Z,82.03
2018-09-05T10:19:16.952Z,82.42
2018-09-05T10:20:16.938Z,82.13
2018-09-05T10:21:16.925Z,81.65
2018-09-05T10:22:16.908Z,82.03
2018-09-05T10:23:16.894Z,81.93
2018-09-05T10:24:16.882Z,81.74
2018-09-05T10:25:16.868Z,80.97
2018-09-05T10:26:16.853Z,81.74
2018-09-05T10:27:16.839Z,81.45
2018-09-05T10:28:16.823Z,81.55
2018-09-05T10:29:16.809Z,80.87
2018-09-05T10:30:16.795Z,81.07
2018-09-05T10:31:16.780Z,81.65
2018-09-05T10:32:16.768Z,80.87
2018-09-05T10:33:16.751Z,80.97
2018-09-05T10:34:16.741Z,80.62
2018-09-05T10:35:16.723Z,80.14
2018-09-05T10:36:16.727Z,80.24
2018-09-05T10:37:16.695Z,80.72
2018-09-05T10:38:16.679Z,79.75
2018-09-05T10:39:16.667Z,79.75
2018-09-05T10:40:16.652Z,79.56
2018-09-05T10:41:16.644Z,79.95
2018-09-05T10:42:16.623Z,80.14
2018-09-05T10:43:16.610Z,80.33
2018-09-05T10:44:16.630Z,80.14
2018-09-05T10:45:16.583Z,80.24
2018-09-05T10:46:16.573Z,79.95
2018-09-05T10:47:16.552Z,79.75
2018-09-05T10:48:16.551Z,78.99
2018-09-05T10:49:16.525Z,79.85
2018-09-05T10:50:16.513Z,79.66
2018-09-05T10:51:16.496Z,79.80
2018-09-05T10:52:16.482Z,79.27
2018-09-05T10:53:16.469Z,79.85
2018-09-05T10:54:16.454Z,79.47
2018-09-05T10:55:16.440Z,79.66
2018-09-05T10:56:16.425Z,80.05
2018-09-05T10:57:16.411Z,80.28
2018-09-05T10:58:16.422Z,79.56
2018-09-05T10:59:16.389Z,79.17
2018-09-05T11:00:16.370Z,80.14
2018-09-05T11:01:16.357Z,79.17
2018-09-05T11:02:16.339Z,79.08
2018-09-05T11:03:16.327Z,79.50
2018-09-05T11:04:16.383Z,79.12
2018-09-05T11:05:16.299Z,78.83
2018-09-05T11:06:16.285Z,78.83
2018-09-05T11:07:16.269Z,78.44
2018-09-05T11:08:16.257Z,78.25
2018-09-05T11:09:16.246Z,78.06
2018-09-05T11:10:16.235Z,78.92
2018-09-05T11:11:16.217Z,78.25
2018-09-05T11:12:16.201Z,78.44
2018-09-05T11:13:16.186Z,78.15
2018-09-05T11:14:16.171Z,77.86
2018-09-05T11:15:16.160Z,78.06
2018-09-05T11:16:16.144Z,78.54
2018-09-05T11:17:16.129Z,78.54
2018-09-05T11:18:16.115Z,78.54
2018-09-05T11:19:16.103Z,78.54
2018-09-05T11:20:16.088Z,77.86
2018-09-05T11:21:16.117Z,78.54
2018-09-05T11:22:16.061Z,78.44
2018-09-05T11:23:16.044Z,77.03
2018-09-05T11:24:16.032Z,76.70
2018-09-05T11:25:16.026Z,76.70
2018-09-05T11:26:16.003Z,76.84
2018-09-05T11:27:15.989Z,77.48
2018-09-05T11:28:15.986Z,78.09
2018-09-05T11:29:15.965Z,78.73
2018-09-05T11:30:15.952Z,77.86
2018-09-05T11:31:15.933Z,77.48
2018-09-05T11:32:15.920Z,77.71
2018-09-05T11:33:15.905Z,77.03
2018-09-05T11:34:15.891Z,77.90
2018-09-05T11:35:15.875Z,77.51
2018-09-05T11:36:15.867Z,77.22
2018-09-05T11:37:15.850Z,76.06
2018-09-05T11:38:15.835Z,76.93
2018-09-05T11:39:15.822Z,76.78
2018-09-05T11:40:15.806Z,76.78
2018-09-05T11:41:15.792Z,78.52
2018-09-05T11:42:15.778Z,76.20
2018-09-05T11:43:15.769Z,75.37
2018-09-05T11:44:15.755Z,74.69
2018-09-05T11:45:15.738Z,74.01
2018-09-05T11:46:15.761Z,73.91
2018-09-05T11:47:15.708Z,74.30
2018-09-05T11:48:15.701Z,74.88
2018-09-05T11:49:15.686Z,74.69
2018-09-05T11:50:15.670Z,74.59
2018-09-05T11:51:15.658Z,74.59
2018-09-05T11:52:15.642Z,74.69
2018-09-05T11:53:15.636Z,74.11
2018-09-05T11:54:15.614Z,74.69
2018-09-05T11:55:15.602Z,74.40
2018-09-05T11:56:15.593Z,74.79
2018-09-05T11:57:15.611Z,75.27
2018-09-05T11:58:15.563Z,75.56
2018-09-05T11:59:15.545Z,75.37
2018-09-05T12:00:15.534Z,74.98
2018-09-05T12:01:15.520Z,76.04
2018-09-05T12:02:15.604Z,74.65
2018-09-05T12:03:15.491Z,75.65
2018-09-05T12:04:15.480Z,75.04
2018-09-05T12:05:15.470Z,75.17
2018-09-05T12:06:15.461Z,73.91
2018-09-05T12:07:15.437Z,73.82
2018-09-05T12:08:15.432Z,74.21
2018-09-05T12:09:15.435Z,72.85
2018-09-05T12:10:15.398Z,71.88
2018-09-05T12:11:15.387Z,74.40
2018-09-05T12:12:15.413Z,74.05
2018-09-05T12:13:15.361Z,75.02
2018-09-05T12:14:15.343Z,74.73
2018-09-05T12:15:15.330Z,74.34
2018-09-05T12:16:15.318Z,72.50
2018-09-05T12:17:15.336Z,71.82
2018-09-05T12:18:15.294Z,71.34
2018-09-05T12:19:15.276Z,68.56
2018-09-05T12:20:15.275Z,67.40
2018-09-05T12:21:15.250Z,64.30
2018-09-05T12:22:15.245Z,62.40
2018-09-05T12:23:15.226Z,62.10
2018-09-05T12:24:15.211Z,62.69
2018-09-05T12:25:15.202Z,62.98
2018-09-05T12:26:15.185Z,61.72
2018-09-05T12:27:15.176Z,65.40
2018-09-05T12:28:15.195Z,64.43
2018-09-05T12:29:15.144Z,66.63
2018-09-05T12:30:15.135Z,67.11
2018-09-05T12:31:15.117Z,64.59
2018-09-05T12:32:15.105Z,66.17
2018-09-05T12:33:15.092Z,65.30
2018-09-05T12:34:15.079Z,70.25
2018-09-05T12:35:15.074Z,69.95
2018-09-05T12:36:15.054Z,66.95
2018-09-05T12:37:15.046Z,67.05
2018-09-05T12:38:15.048Z,65.40
2018-09-05T12:39:15.021Z,67.24
2018-09-05T12:40:15.041Z,67.05
2018-09-05T12:41:14.990Z,65.89
2018-09-05T12:42:14.979Z,69.18
2018-09-05T12:43:15.010Z,64.14
2018-09-05T12:44:14.959Z,68.79
2018-09-05T12:45:14.937Z,63.78
2018-09-05T12:46:14.923Z,60.58
2018-09-05T12:47:14.912Z,64.56
2018-09-05T12:48:14.898Z,62.72
2018-09-05T12:49:14.886Z,63.49
2018-09-05T12:50:14.874Z,60.68
2018-09-05T12:51:14.861Z,61.94
2018-09-05T12:52:14.849Z,66.02